sensor_id;sensor_type;location;lat;lon;timestamp;P1;durP1;ratioP1;P2;durP2;ratioP2
29958;SDS011;16815;51.100;6.516;2022-08-19T00:01:25;10.27;;;9.37;;
29958;SDS011;16815;51.100;6.516;2022-08-19T00:03:54;9.97;;;9.07;;
29958;SDS011;16815;51.100;6.516;2022-08-19T00:06:20;9.93;;;9.03;;
29958;SDS011;16815;51.100;6.516;2022-08-19T00:08:46;10.57;;;9.47;;
29958;SDS011;16815;51.100;6.516;2022-08-19T00:11:13;10.50;;;8.27;;
29958;SDS011;16815;51.100;6.516;2022-08-19T00:13:39;11.40;;;10.30;;
29958;SDS011;16815;51.100;6.516;2022-08-19T00:16:06;10.70;;;9.63;;
29958;SDS011;16815;51.100;6.516;2022-08-19T00:18:32;11.67;;;10.57;;
29958;SDS011;16815;51.100;6.516;2022-08-19T00:20:59;11.73;;;10.53;;
29958;SDS011;16815;51.100;6.516;2022-08-19T00:23:25;13.77;;;10.30;;
29958;SDS011;16815;51.100;6.516;2022-08-19T00:25:52;15.77;;;10.10;;
29958;SDS011;16815;51.100;6.516;2022-08-19T00:28:18;13.07;;;10.53;;
29958;SDS011;16815;51.100;6.516;2022-08-19T00:30:45;13.53;;;10.33;;
29958;SDS011;16815;51.100;6.516;2022-08-19T00:33:11;16.77;;;11.50;;
29958;SDS011;16815;51.100;6.516;2022-08-19T00:35:38;16.80;;;11.37;;
29958;SDS011;16815;51.100;6.516;2022-08-19T00:38:04;18.20;;;10.83;;
29958;SDS011;16815;51.100;6.516;2022-08-19T00:40:31;18.80;;;11.70;;
29958;SDS011;16815;51.100;6.516;2022-08-19T00:42:57;17.63;;;11.57;;
29958;SDS011;16815;51.100;6.516;2022-08-19T00:45:28;19.13;;;10.93;;
29958;SDS011;16815;51.100;6.516;2022-08-19T00:47:58;18.03;;;11.40;;
29958;SDS011;16815;51.100;6.516;2022-08-19T00:50:28;17.87;;;12.53;;
29958;SDS011;16815;51.100;6.516;2022-08-19T00:52:54;18.93;;;12.43;;
29958;SDS011;16815;51.100;6.516;2022-08-19T00:55:21;19.10;;;12.50;;
29958;SDS011;16815;51.100;6.516;2022-08-19T00:57:53;23.83;;;12.20;;
29958;SDS011;16815;51.100;6.516;2022-08-19T01:00:20;19.30;;;13.37;;
29958;SDS011;16815;51.100;6.516;2022-08-19T01:02:46;18.33;;;13.10;;
29958;SDS011;16815;51.100;6.516;2022-08-19T01:05:14;30.00;;;13.30;;
29958;SDS011;16815;51.100;6.516;2022-08-19T01:07:40;28.70;;;13.67;;
29958;SDS011;16815;51.100;6.516;2022-08-19T01:10:11;21.27;;;12.07;;
29958;SDS011;16815;51.100;6.516;2022-08-19T01:12:37;26.17;;;13.40;;
29958;SDS011;16815;51.100;6.516;2022-08-19T01:15:05;23.07;;;11.70;;
29958;SDS011;16815;51.100;6.516;2022-08-19T01:17:32;31.60;;;12.17;;
29958;SDS011;16815;51.100;6.516;2022-08-19T01:19:58;25.47;;;12.17;;
29958;SDS011;16815;51.100;6.516;2022-08-19T01:22:29;24.23;;;11.20;;
29958;SDS011;16815;51.100;6.516;2022-08-19T01:24:56;28.60;;;11.93;;
29958;SDS011;16815;51.100;6.516;2022-08-19T01:27:22;20.93;;;11.37;;
29958;SDS011;16815;51.100;6.516;2022-08-19T01:29:48;24.43;;;12.43;;
29958;SDS011;16815;51.100;6.516;2022-08-19T01:32:15;22.27;;;12.03;;
29958;SDS011;16815;51.100;6.516;2022-08-19T01:34:41;27.73;;;10.83;;
29958;SDS011;16815;51.100;6.516;2022-08-19T01:37:11;31.23;;;11.93;;
29958;SDS011;16815;51.100;6.516;2022-08-19T01:39:38;27.47;;;12.80;;
29958;SDS011;16815;51.100;6.516;2022-08-19T01:42:05;35.80;;;13.23;;
29958;SDS011;16815;51.100;6.516;2022-08-19T01:44:32;32.53;;;13.03;;
29958;SDS011;16815;51.100;6.516;2022-08-19T01:46:58;26.57;;;13.13;;
29958;SDS011;16815;51.100;6.516;2022-08-19T01:49:24;33.33;;;15.50;;
29958;SDS011;16815;51.100;6.516;2022-08-19T01:51:51;23.83;;;13.40;;
29958;SDS011;16815;51.100;6.516;2022-08-19T01:54:19;25.03;;;14.77;;
29958;SDS011;16815;51.100;6.516;2022-08-19T01:56:45;31.77;;;15.97;;
29958;SDS011;16815;51.100;6.516;2022-08-19T01:59:12;32.20;;;16.60;;
29958;SDS011;16815;51.100;6.516;2022-08-19T02:01:40;32.80;;;17.07;;
29958;SDS011;16815;51.100;6.516;2022-08-19T02:04:06;35.07;;;18.87;;
29958;SDS011;16815;51.100;6.516;2022-08-19T02:06:32;28.10;;;17.80;;
29958;SDS011;16815;51.100;6.516;2022-08-19T02:08:58;34.37;;;19.37;;
29958;SDS011;16815;51.100;6.516;2022-08-19T02:11:26;29.30;;;18.50;;
29958;SDS011;16815;51.100;6.516;2022-08-19T02:13:53;36.00;;;18.67;;
29958;SDS011;16815;51.100;6.516;2022-08-19T02:16:19;35.10;;;20.37;;
29958;SDS011;16815;51.100;6.516;2022-08-19T02:18:45;30.37;;;19.97;;
29958;SDS011;16815;51.100;6.516;2022-08-19T02:21:13;35.67;;;20.00;;
29958;SDS011;16815;51.100;6.516;2022-08-19T02:23:40;33.90;;;20.93;;
29958;SDS011;16815;51.100;6.516;2022-08-19T02:26:06;23.77;;;20.90;;
29958;SDS011;16815;51.100;6.516;2022-08-19T02:28:32;30.53;;;24.07;;
29958;SDS011;16815;51.100;6.516;2022-08-19T02:30:58;29.90;;;24.20;;
29958;SDS011;16815;51.100;6.516;2022-08-19T02:33:25;29.13;;;25.10;;
29958;SDS011;16815;51.100;6.516;2022-08-19T02:35:52;28.20;;;25.20;;
29958;SDS011;16815;51.100;6.516;2022-08-19T02:38:18;35.00;;;28.43;;
29958;SDS011;16815;51.100;6.516;2022-08-19T02:40:50;35.80;;;31.27;;
29958;SDS011;16815;51.100;6.516;2022-08-19T02:43:17;33.23;;;29.93;;
29958;SDS011;16815;51.100;6.516;2022-08-19T02:45:45;38.80;;;31.37;;
29958;SDS011;16815;51.100;6.516;2022-08-19T02:48:13;34.27;;;30.60;;
29958;SDS011;16815;51.100;6.516;2022-08-19T02:50:39;37.27;;;32.60;;
29958;SDS011;16815;51.100;6.516;2022-08-19T02:53:05;38.53;;;34.17;;
29958;SDS011;16815;51.100;6.516;2022-08-19T02:55:33;40.77;;;36.47;;
29958;SDS011;16815;51.100;6.516;2022-08-19T02:57:59;39.73;;;35.50;;
29958;SDS011;16815;51.100;6.516;2022-08-19T03:00:25;39.33;;;35.20;;
29958;SDS011;16815;51.100;6.516;2022-08-19T03:02:51;41.67;;;37.27;;
29958;SDS011;16815;51.100;6.516;2022-08-19T03:05:17;41.87;;;37.53;;
29958;SDS011;16815;51.100;6.516;2022-08-19T03:07:43;40.70;;;36.10;;
29958;SDS011;16815;51.100;6.516;2022-08-19T03:10:11;40.53;;;36.23;;
29958;SDS011;16815;51.100;6.516;2022-08-19T03:12:39;43.00;;;38.60;;
29958;SDS011;16815;51.100;6.516;2022-08-19T03:15:06;41.20;;;36.97;;
29958;SDS011;16815;51.100;6.516;2022-08-19T03:17:32;41.53;;;37.23;;
29958;SDS011;16815;51.100;6.516;2022-08-19T03:19:58;41.93;;;37.50;;
29958;SDS011;16815;51.100;6.516;2022-08-19T03:22:24;39.20;;;35.20;;
29958;SDS011;16815;51.100;6.516;2022-08-19T03:24:50;42.57;;;38.17;;
29958;SDS011;16815;51.100;6.516;2022-08-19T03:27:16;43.67;;;39.07;;
29958;SDS011;16815;51.100;6.516;2022-08-19T03:29:42;43.80;;;39.10;;
29958;SDS011;16815;51.100;6.516;2022-08-19T03:32:08;50.90;;;41.60;;
29958;SDS011;16815;51.100;6.516;2022-08-19T03:34:35;43.40;;;38.80;;
29958;SDS011;16815;51.100;6.516;2022-08-19T03:37:07;45.63;;;40.87;;
29958;SDS011;16815;51.100;6.516;2022-08-19T03:39:33;44.33;;;39.73;;
29958;SDS011;16815;51.100;6.516;2022-08-19T03:42:01;45.97;;;41.27;;
29958;SDS011;16815;51.100;6.516;2022-08-19T03:44:27;43.50;;;38.60;;
29958;SDS011;16815;51.100;6.516;2022-08-19T03:46:55;46.93;;;41.07;;
29958;SDS011;16815;51.100;6.516;2022-08-19T03:49:21;42.03;;;37.77;;
29958;SDS011;16815;51.100;6.516;2022-08-19T03:51:48;43.80;;;39.27;;
29958;SDS011;16815;51.100;6.516;2022-08-19T03:54:16;43.87;;;39.27;;
29958;SDS011;16815;51.100;6.516;2022-08-19T03:56:43;43.90;;;39.23;;
29958;SDS011;16815;51.100;6.516;2022-08-19T03:59:13;43.23;;;38.67;;
29958;SDS011;16815;51.100;6.516;2022-08-19T04:01:39;46.07;;;40.73;;
29958;SDS011;16815;51.100;6.516;2022-08-19T04:04:05;43.03;;;38.23;;
29958;SDS011;16815;51.100;6.516;2022-08-19T04:06:32;43.13;;;38.47;;
29958;SDS011;16815;51.100;6.516;2022-08-19T04:08:59;46.60;;;39.00;;
29958;SDS011;16815;51.100;6.516;2022-08-19T04:11:27;44.93;;;38.77;;
29958;SDS011;16815;51.100;6.516;2022-08-19T04:13:54;39.30;;;35.17;;
29958;SDS011;16815;51.100;6.516;2022-08-19T04:16:21;42.40;;;37.80;;
29958;SDS011;16815;51.100;6.516;2022-08-19T04:18:48;45.70;;;38.87;;
29958;SDS011;16815;51.100;6.516;2022-08-19T04:21:18;41.70;;;37.33;;
29958;SDS011;16815;51.100;6.516;2022-08-19T04:23:44;41.27;;;36.87;;
29958;SDS011;16815;51.100;6.516;2022-08-19T04:26:14;43.57;;;38.87;;
29958;SDS011;16815;51.100;6.516;2022-08-19T04:28:40;43.23;;;35.93;;
29958;SDS011;16815;51.100;6.516;2022-08-19T04:31:11;43.37;;;38.57;;
29958;SDS011;16815;51.100;6.516;2022-08-19T04:33:38;45.23;;;38.37;;
29958;SDS011;16815;51.100;6.516;2022-08-19T04:36:04;44.63;;;38.43;;
29958;SDS011;16815;51.100;6.516;2022-08-19T04:38:30;43.47;;;38.77;;
29958;SDS011;16815;51.100;6.516;2022-08-19T04:40:56;41.00;;;36.50;;
29958;SDS011;16815;51.100;6.516;2022-08-19T04:43:41;44.63;;;37.23;;
29958;SDS011;16815;51.100;6.516;2022-08-19T04:46:10;41.70;;;37.17;;
29958;SDS011;16815;51.100;6.516;2022-08-19T04:48:37;41.63;;;35.97;;
29958;SDS011;16815;51.100;6.516;2022-08-19T04:51:05;39.43;;;35.17;;
29958;SDS011;16815;51.100;6.516;2022-08-19T04:53:32;39.10;;;34.83;;
29958;SDS011;16815;51.100;6.516;2022-08-19T04:55:59;40.83;;;33.97;;
29958;SDS011;16815;51.100;6.516;2022-08-19T04:58:27;40.00;;;34.17;;
29958;SDS011;16815;51.100;6.516;2022-08-19T05:00:53;40.03;;;33.97;;
29958;SDS011;16815;51.100;6.516;2022-08-19T05:03:19;38.13;;;34.03;;
29958;SDS011;16815;51.100;6.516;2022-08-19T05:05:46;38.67;;;32.67;;
29958;SDS011;16815;51.100;6.516;2022-08-19T05:08:16;42.43;;;35.50;;
29958;SDS011;16815;51.100;6.516;2022-08-19T05:10:44;40.40;;;33.57;;
29958;SDS011;16815;51.100;6.516;2022-08-19T05:13:11;35.73;;;31.40;;
29958;SDS011;16815;51.100;6.516;2022-08-19T05:15:37;36.10;;;31.27;;
29958;SDS011;16815;51.100;6.516;2022-08-19T05:18:03;36.87;;;31.57;;
29958;SDS011;16815;51.100;6.516;2022-08-19T05:20:47;34.70;;;30.20;;
29958;SDS011;16815;51.100;6.516;2022-08-19T05:23:32;33.00;;;28.83;;
29958;SDS011;16815;51.100;6.516;2022-08-19T05:25:58;38.17;;;31.43;;
29958;SDS011;16815;51.100;6.516;2022-08-19T05:28:24;34.03;;;30.40;;
29958;SDS011;16815;51.100;6.516;2022-08-19T05:30:50;35.40;;;31.27;;
29958;SDS011;16815;51.100;6.516;2022-08-19T05:33:16;34.10;;;30.40;;
29958;SDS011;16815;51.100;6.516;2022-08-19T05:35:43;40.50;;;31.03;;
29958;SDS011;16815;51.100;6.516;2022-08-19T05:38:09;31.77;;;28.37;;
29958;SDS011;16815;51.100;6.516;2022-08-19T05:40:37;33.83;;;29.67;;
29958;SDS011;16815;51.100;6.516;2022-08-19T05:43:03;29.90;;;26.37;;
29958;SDS011;16815;51.100;6.516;2022-08-19T05:45:30;32.30;;;28.70;;
29958;SDS011;16815;51.100;6.516;2022-08-19T05:47:56;33.80;;;29.23;;
29958;SDS011;16815;51.100;6.516;2022-08-19T05:50:23;36.73;;;30.70;;
29958;SDS011;16815;51.100;6.516;2022-08-19T05:52:50;36.53;;;31.27;;
29958;SDS011;16815;51.100;6.516;2022-08-19T05:55:16;35.43;;;29.63;;
29958;SDS011;16815;51.100;6.516;2022-08-19T05:57:45;38.47;;;31.90;;
29958;SDS011;16815;51.100;6.516;2022-08-19T06:00:11;34.17;;;29.87;;
29958;SDS011;16815;51.100;6.516;2022-08-19T06:02:37;34.10;;;30.37;;
29958;SDS011;16815;51.100;6.516;2022-08-19T06:05:04;36.60;;;32.23;;
29958;SDS011;16815;51.100;6.516;2022-08-19T06:07:32;35.77;;;30.30;;
29958;SDS011;16815;51.100;6.516;2022-08-19T06:09:58;38.03;;;31.73;;
29958;SDS011;16815;51.100;6.516;2022-08-19T06:12:24;35.33;;;30.60;;
29958;SDS011;16815;51.100;6.516;2022-08-19T06:14:53;34.23;;;30.53;;
29958;SDS011;16815;51.100;6.516;2022-08-19T06:17:19;38.17;;;32.97;;
29958;SDS011;16815;51.100;6.516;2022-08-19T06:19:47;43.23;;;32.67;;
29958;SDS011;16815;51.100;6.516;2022-08-19T06:22:14;43.33;;;32.67;;
29958;SDS011;16815;51.100;6.516;2022-08-19T06:24:41;39.37;;;33.70;;
29958;SDS011;16815;51.100;6.516;2022-08-19T06:27:07;39.43;;;32.27;;
29958;SDS011;16815;51.100;6.516;2022-08-19T06:29:33;43.47;;;32.53;;
29958;SDS011;16815;51.100;6.516;2022-08-19T06:32:00;45.43;;;33.33;;
29958;SDS011;16815;51.100;6.516;2022-08-19T06:34:27;44.13;;;33.30;;
29958;SDS011;16815;51.100;6.516;2022-08-19T06:36:54;39.97;;;32.60;;
29958;SDS011;16815;51.100;6.516;2022-08-19T06:39:21;43.53;;;34.57;;
29958;SDS011;16815;51.100;6.516;2022-08-19T06:41:48;38.40;;;32.93;;
29958;SDS011;16815;51.100;6.516;2022-08-19T06:44:15;42.57;;;34.40;;
29958;SDS011;16815;51.100;6.516;2022-08-19T06:46:41;40.17;;;32.83;;
29958;SDS011;16815;51.100;6.516;2022-08-19T06:49:07;39.80;;;33.73;;
29958;SDS011;16815;51.100;6.516;2022-08-19T06:51:36;40.97;;;34.20;;
29958;SDS011;16815;51.100;6.516;2022-08-19T06:54:02;44.93;;;35.37;;
29958;SDS011;16815;51.100;6.516;2022-08-19T06:56:29;43.00;;;36.00;;
29958;SDS011;16815;51.100;6.516;2022-08-19T06:59:02;44.63;;;38.07;;
29958;SDS011;16815;51.100;6.516;2022-08-19T07:01:29;42.73;;;34.40;;
29958;SDS011;16815;51.100;6.516;2022-08-19T07:03:55;41.53;;;34.37;;
29958;SDS011;16815;51.100;6.516;2022-08-19T07:06:22;44.73;;;34.67;;
29958;SDS011;16815;51.100;6.516;2022-08-19T07:08:48;46.30;;;36.10;;
29958;SDS011;16815;51.100;6.516;2022-08-19T07:11:16;46.40;;;35.77;;
29958;SDS011;16815;51.100;6.516;2022-08-19T07:13:43;47.93;;;36.73;;
29958;SDS011;16815;51.100;6.516;2022-08-19T07:16:12;47.87;;;35.67;;
29958;SDS011;16815;51.100;6.516;2022-08-19T07:18:38;49.93;;;35.30;;
29958;SDS011;16815;51.100;6.516;2022-08-19T07:21:05;48.00;;;36.93;;
29958;SDS011;16815;51.100;6.516;2022-08-19T07:23:32;44.57;;;33.50;;
29958;SDS011;16815;51.100;6.516;2022-08-19T07:26:08;46.90;;;35.73;;
29958;SDS011;16815;51.100;6.516;2022-08-19T07:28:35;43.90;;;33.53;;
29958;SDS011;16815;51.100;6.516;2022-08-19T07:31:04;49.03;;;34.97;;
29958;SDS011;16815;51.100;6.516;2022-08-19T07:33:30;43.43;;;33.47;;
29958;SDS011;16815;51.100;6.516;2022-08-19T07:35:57;38.03;;;30.80;;
29958;SDS011;16815;51.100;6.516;2022-08-19T07:38:23;39.43;;;31.10;;
29958;SDS011;16815;51.100;6.516;2022-08-19T07:40:49;39.93;;;30.47;;
29958;SDS011;16815;51.100;6.516;2022-08-19T07:43:16;49.93;;;33.00;;
29958;SDS011;16815;51.100;6.516;2022-08-19T07:45:49;40.25;;;29.95;;
29958;SDS011;16815;51.100;6.516;2022-08-19T07:48:16;36.50;;;28.20;;
29958;SDS011;16815;51.100;6.516;2022-08-19T07:50:42;40.53;;;27.17;;
29958;SDS011;16815;51.100;6.516;2022-08-19T07:53:08;32.97;;;26.48;;
29958;SDS011;16815;51.100;6.516;2022-08-19T07:55:33;35.77;;;28.27;;
29958;SDS011;16815;51.100;6.516;2022-08-19T07:57:59;35.88;;;28.58;;
29958;SDS011;16815;51.100;6.516;2022-08-19T08:00:25;33.83;;;27.38;;
29958;SDS011;16815;51.100;6.516;2022-08-19T08:02:52;33.85;;;26.73;;
29958;SDS011;16815;51.100;6.516;2022-08-19T08:05:18;41.05;;;26.60;;
29958;SDS011;16815;51.100;6.516;2022-08-19T08:08:03;32.20;;;25.63;;
29958;SDS011;16815;51.100;6.516;2022-08-19T08:10:47;32.87;;;23.57;;
29958;SDS011;16815;51.100;6.516;2022-08-19T08:13:13;27.65;;;21.88;;
29958;SDS011;16815;51.100;6.516;2022-08-19T08:15:39;29.03;;;23.00;;
29958;SDS011;16815;51.100;6.516;2022-08-19T08:18:05;26.65;;;21.08;;
29958;SDS011;16815;51.100;6.516;2022-08-19T08:20:32;29.33;;;21.57;;
29958;SDS011;16815;51.100;6.516;2022-08-19T08:22:58;28.08;;;20.67;;
29958;SDS011;16815;51.100;6.516;2022-08-19T08:25:42;27.45;;;20.95;;
29958;SDS011;16815;51.100;6.516;2022-08-19T08:28:08;22.05;;;19.60;;
29958;SDS011;16815;51.100;6.516;2022-08-19T08:30:35;26.02;;;21.42;;
29958;SDS011;16815;51.100;6.516;2022-08-19T08:33:04;26.85;;;21.10;;
29958;SDS011;16815;51.100;6.516;2022-08-19T08:35:30;28.23;;;20.55;;
29958;SDS011;16815;51.100;6.516;2022-08-19T08:37:56;28.58;;;20.83;;
29958;SDS011;16815;51.100;6.516;2022-08-19T08:40:39;24.77;;;20.40;;
29958;SDS011;16815;51.100;6.516;2022-08-19T08:45:40;23.95;;;19.08;;
29958;SDS011;16815;51.100;6.516;2022-08-19T08:48:12;21.08;;;17.75;;
29958;SDS011;16815;51.100;6.516;2022-08-19T08:50:41;25.83;;;16.95;;
29958;SDS011;16815;51.100;6.516;2022-08-19T08:53:08;19.27;;;16.02;;
29958;SDS011;16815;51.100;6.516;2022-08-19T08:55:36;18.63;;;13.52;;
29958;SDS011;16815;51.100;6.516;2022-08-19T08:58:46;17.52;;;14.10;;
29958;SDS011;16815;51.100;6.516;2022-08-19T09:00:51;15.82;;;11.98;;
29958;SDS011;16815;51.100;6.516;2022-08-19T09:03:21;13.23;;;10.98;;
29958;SDS011;16815;51.100;6.516;2022-08-19T09:05:51;12.95;;;10.77;;
29958;SDS011;16815;51.100;6.516;2022-08-19T09:08:24;12.88;;;10.40;;
29958;SDS011;16815;51.100;6.516;2022-08-19T09:10:55;12.25;;;10.32;;
29958;SDS011;16815;51.100;6.516;2022-08-19T09:13:26;14.45;;;11.07;;
29958;SDS011;16815;51.100;6.516;2022-08-19T09:16:00;17.42;;;11.52;;
29958;SDS011;16815;51.100;6.516;2022-08-19T09:18:44;14.43;;;10.57;;
29958;SDS011;16815;51.100;6.516;2022-08-19T09:21:12;15.10;;;12.98;;
29958;SDS011;16815;51.100;6.516;2022-08-19T09:23:38;13.80;;;11.88;;
29958;SDS011;16815;51.100;6.516;2022-08-19T09:26:08;15.98;;;12.90;;
29958;SDS011;16815;51.100;6.516;2022-08-19T09:28:34;16.92;;;13.38;;
29958;SDS011;16815;51.100;6.516;2022-08-19T09:31:01;15.68;;;13.77;;
29958;SDS011;16815;51.100;6.516;2022-08-19T09:33:27;17.05;;;13.88;;
29958;SDS011;16815;51.100;6.516;2022-08-19T09:36:03;18.60;;;14.80;;
29958;SDS011;16815;51.100;6.516;2022-08-19T09:38:29;20.08;;;15.85;;
29958;SDS011;16815;51.100;6.516;2022-08-19T09:40:55;20.30;;;16.20;;
29958;SDS011;16815;51.100;6.516;2022-08-19T09:43:24;20.15;;;15.50;;
29958;SDS011;16815;51.100;6.516;2022-08-19T09:45:53;19.33;;;15.10;;
29958;SDS011;16815;51.100;6.516;2022-08-19T09:48:18;17.88;;;14.02;;
29958;SDS011;16815;51.100;6.516;2022-08-19T09:50:45;14.75;;;11.75;;
29958;SDS011;16815;51.100;6.516;2022-08-19T09:53:11;14.45;;;12.38;;
29958;SDS011;16815;51.100;6.516;2022-08-19T09:55:41;15.52;;;12.20;;
29958;SDS011;16815;51.100;6.516;2022-08-19T09:58:07;16.70;;;14.00;;
29958;SDS011;16815;51.100;6.516;2022-08-19T10:00:33;16.92;;;13.15;;
29958;SDS011;16815;51.100;6.516;2022-08-19T10:03:00;17.15;;;13.10;;
29958;SDS011;16815;51.100;6.516;2022-08-19T10:05:26;14.23;;;12.82;;
29958;SDS011;16815;51.100;6.516;2022-08-19T10:08:10;17.25;;;13.13;;
29958;SDS011;16815;51.100;6.516;2022-08-19T10:10:36;13.23;;;11.23;;
29958;SDS011;16815;51.100;6.516;2022-08-19T10:13:02;13.48;;;11.90;;
29958;SDS011;16815;51.100;6.516;2022-08-19T10:15:29;14.32;;;11.38;;
29958;SDS011;16815;51.100;6.516;2022-08-19T10:17:55;14.40;;;11.60;;
29958;SDS011;16815;51.100;6.516;2022-08-19T10:20:21;17.02;;;12.13;;
29958;SDS011;16815;51.100;6.516;2022-08-19T10:22:47;12.15;;;10.35;;
29958;SDS011;16815;51.100;6.516;2022-08-19T10:25:13;13.43;;;10.90;;
29958;SDS011;16815;51.100;6.516;2022-08-19T10:27:41;13.07;;;11.57;;
29958;SDS011;16815;51.100;6.516;2022-08-19T10:30:07;11.15;;;10.05;;
29958;SDS011;16815;51.100;6.516;2022-08-19T10:32:33;11.43;;;10.13;;
29958;SDS011;16815;51.100;6.516;2022-08-19T10:35:00;12.55;;;10.68;;
29958;SDS011;16815;51.100;6.516;2022-08-19T10:37:26;12.13;;;10.32;;
29958;SDS011;16815;51.100;6.516;2022-08-19T10:39:51;11.20;;;9.57;;
29958;SDS011;16815;51.100;6.516;2022-08-19T10:42:18;10.70;;;8.88;;
29958;SDS011;16815;51.100;6.516;2022-08-19T10:44:44;11.02;;;9.88;;
29958;SDS011;16815;51.100;6.516;2022-08-19T10:47:11;23.35;;;11.20;;
29958;SDS011;16815;51.100;6.516;2022-08-19T10:49:37;11.38;;;9.80;;
29958;SDS011;16815;51.100;6.516;2022-08-19T10:52:23;13.40;;;9.52;;
29958;SDS011;16815;51.100;6.516;2022-08-19T10:54:58;12.68;;;11.05;;
29958;SDS011;16815;51.100;6.516;2022-08-19T10:57:43;12.80;;;10.98;;
29958;SDS011;16815;51.100;6.516;2022-08-19T11:00:09;12.95;;;10.40;;
29958;SDS011;16815;51.100;6.516;2022-08-19T11:02:35;13.13;;;10.55;;
29958;SDS011;16815;51.100;6.516;2022-08-19T11:05:01;12.20;;;10.90;;
29958;SDS011;16815;51.100;6.516;2022-08-19T11:07:27;12.25;;;10.75;;
29958;SDS011;16815;51.100;6.516;2022-08-19T11:09:53;11.70;;;9.60;;
29958;SDS011;16815;51.100;6.516;2022-08-19T11:12:19;11.80;;;9.65;;
29958;SDS011;16815;51.100;6.516;2022-08-19T11:14:45;11.95;;;10.50;;
29958;SDS011;16815;51.100;6.516;2022-08-19T11:17:14;11.75;;;10.38;;
29958;SDS011;16815;51.100;6.516;2022-08-19T11:19:40;14.68;;;11.73;;
29958;SDS011;16815;51.100;6.516;2022-08-19T11:22:07;13.30;;;10.13;;
29958;SDS011;16815;51.100;6.516;2022-08-19T11:24:34;11.95;;;9.85;;
29958;SDS011;16815;51.100;6.516;2022-08-19T11:27:02;11.00;;;9.80;;
29958;SDS011;16815;51.100;6.516;2022-08-19T11:29:29;11.02;;;9.40;;
29958;SDS011;16815;51.100;6.516;2022-08-19T11:31:55;10.15;;;8.85;;
29958;SDS011;16815;51.100;6.516;2022-08-19T11:34:24;10.68;;;8.65;;
29958;SDS011;16815;51.100;6.516;2022-08-19T11:36:50;11.13;;;8.32;;
29958;SDS011;16815;51.100;6.516;2022-08-19T11:39:18;9.70;;;8.43;;
29958;SDS011;16815;51.100;6.516;2022-08-19T11:41:45;10.43;;;8.80;;
29958;SDS011;16815;51.100;6.516;2022-08-19T11:44:11;11.02;;;7.80;;
29958;SDS011;16815;51.100;6.516;2022-08-19T11:46:38;8.05;;;6.43;;
29958;SDS011;16815;51.100;6.516;2022-08-19T11:49:05;6.85;;;6.13;;
29958;SDS011;16815;51.100;6.516;2022-08-19T11:51:34;10.45;;;6.95;;
29958;SDS011;16815;51.100;6.516;2022-08-19T11:54:00;10.02;;;7.60;;
29958;SDS011;16815;51.100;6.516;2022-08-19T11:56:27;9.25;;;7.82;;
29958;SDS011;16815;51.100;6.516;2022-08-19T11:58:53;8.27;;;6.38;;
29958;SDS011;16815;51.100;6.516;2022-08-19T12:01:22;6.97;;;6.28;;
29958;SDS011;16815;51.100;6.516;2022-08-19T12:03:49;8.27;;;7.10;;
29958;SDS011;16815;51.100;6.516;2022-08-19T12:06:16;7.65;;;6.28;;
29958;SDS011;16815;51.100;6.516;2022-08-19T12:08:43;8.30;;;6.60;;
29958;SDS011;16815;51.100;6.516;2022-08-19T12:11:10;9.70;;;7.10;;
29958;SDS011;16815;51.100;6.516;2022-08-19T12:13:36;9.25;;;6.35;;
29958;SDS011;16815;51.100;6.516;2022-08-19T12:16:24;6.38;;;5.63;;
29958;SDS011;16815;51.100;6.516;2022-08-19T12:18:50;5.75;;;5.10;;
29958;SDS011;16815;51.100;6.516;2022-08-19T12:21:18;7.88;;;5.35;;
29958;SDS011;16815;51.100;6.516;2022-08-19T12:23:46;6.53;;;4.90;;
29958;SDS011;16815;51.100;6.516;2022-08-19T12:26:13;6.07;;;5.25;;
29958;SDS011;16815;51.100;6.516;2022-08-19T12:28:39;7.03;;;6.40;;
29958;SDS011;16815;51.100;6.516;2022-08-19T12:31:06;7.55;;;6.55;;
29958;SDS011;16815;51.100;6.516;2022-08-19T12:33:32;7.45;;;6.68;;
29958;SDS011;16815;51.100;6.516;2022-08-19T12:36:03;8.15;;;7.35;;
29958;SDS011;16815;51.100;6.516;2022-08-19T12:38:29;9.13;;;7.00;;
29958;SDS011;16815;51.100;6.516;2022-08-19T12:40:57;10.18;;;6.28;;
29958;SDS011;16815;51.100;6.516;2022-08-19T12:43:23;8.43;;;5.95;;
29958;SDS011;16815;51.100;6.516;2022-08-19T12:45:49;7.10;;;5.63;;
29958;SDS011;16815;51.100;6.516;2022-08-19T12:48:15;7.32;;;5.22;;
29958;SDS011;16815;51.100;6.516;2022-08-19T12:50:41;6.28;;;5.00;;
29958;SDS011;16815;51.100;6.516;2022-08-19T12:53:08;6.57;;;4.90;;
29958;SDS011;16815;51.100;6.516;2022-08-19T12:55:34;6.60;;;5.50;;
29958;SDS011;16815;51.100;6.516;2022-08-19T12:57:59;7.50;;;5.63;;
29958;SDS011;16815;51.100;6.516;2022-08-19T13:00:29;4.63;;;4.15;;
29958;SDS011;16815;51.100;6.516;2022-08-19T13:02:57;4.95;;;3.55;;
29958;SDS011;16815;51.100;6.516;2022-08-19T13:05:24;6.05;;;3.72;;
29958;SDS011;16815;51.100;6.516;2022-08-19T13:07:51;4.63;;;3.90;;
29958;SDS011;16815;51.100;6.516;2022-08-19T13:10:20;7.13;;;4.07;;
29958;SDS011;16815;51.100;6.516;2022-08-19T13:12:48;4.90;;;3.83;;
29958;SDS011;16815;51.100;6.516;2022-08-19T13:15:16;8.23;;;3.67;;
29958;SDS011;16815;51.100;6.516;2022-08-19T13:17:46;6.53;;;3.30;;
29958;SDS011;16815;51.100;6.516;2022-08-19T13:20:14;6.18;;;3.90;;
29958;SDS011;16815;51.100;6.516;2022-08-19T13:22:40;5.75;;;3.75;;
29958;SDS011;16815;51.100;6.516;2022-08-19T13:25:07;4.15;;;3.67;;
29958;SDS011;16815;51.100;6.516;2022-08-19T13:27:34;6.45;;;3.50;;
29958;SDS011;16815;51.100;6.516;2022-08-19T13:30:00;3.88;;;3.40;;
29958;SDS011;16815;51.100;6.516;2022-08-19T13:32:45;5.57;;;3.80;;
29958;SDS011;16815;51.100;6.516;2022-08-19T13:35:29;3.75;;;3.08;;
29958;SDS011;16815;51.100;6.516;2022-08-19T13:37:55;5.15;;;2.78;;
29958;SDS011;16815;51.100;6.516;2022-08-19T13:40:23;3.28;;;2.63;;
29958;SDS011;16815;51.100;6.516;2022-08-19T13:42:52;3.70;;;2.90;;
29958;SDS011;16815;51.100;6.516;2022-08-19T13:45:20;5.10;;;2.92;;
29958;SDS011;16815;51.100;6.516;2022-08-19T13:47:47;3.08;;;2.55;;
29958;SDS011;16815;51.100;6.516;2022-08-19T13:50:14;3.67;;;2.95;;
29958;SDS011;16815;51.100;6.516;2022-08-19T13:52:41;4.85;;;2.80;;
29958;SDS011;16815;51.100;6.516;2022-08-19T13:55:07;3.22;;;2.72;;
29958;SDS011;16815;51.100;6.516;2022-08-19T13:57:34;3.25;;;2.75;;
29958;SDS011;16815;51.100;6.516;2022-08-19T14:00:00;2.92;;;2.38;;
29958;SDS011;16815;51.100;6.516;2022-08-19T14:02:27;3.47;;;2.40;;
29958;SDS011;16815;51.100;6.516;2022-08-19T14:04:53;5.18;;;2.35;;
29958;SDS011;16815;51.100;6.516;2022-08-19T14:07:19;3.97;;;2.72;;
29958;SDS011;16815;51.100;6.516;2022-08-19T14:09:48;4.75;;;2.50;;
29958;SDS011;16815;51.100;6.516;2022-08-19T14:12:13;2.67;;;2.00;;
29958;SDS011;16815;51.100;6.516;2022-08-19T14:14:40;2.83;;;2.33;;
29958;SDS011;16815;51.100;6.516;2022-08-19T14:17:06;2.53;;;2.33;;
29958;SDS011;16815;51.100;6.516;2022-08-19T14:19:33;4.53;;;2.35;;
29958;SDS011;16815;51.100;6.516;2022-08-19T14:21:59;2.55;;;2.35;;
29958;SDS011;16815;51.100;6.516;2022-08-19T14:24:24;2.58;;;2.38;;
29958;SDS011;16815;51.100;6.516;2022-08-19T14:26:50;3.03;;;2.45;;
29958;SDS011;16815;51.100;6.516;2022-08-19T14:29:16;3.42;;;2.70;;
29958;SDS011;16815;51.100;6.516;2022-08-19T14:31:42;2.55;;;2.35;;
29958;SDS011;16815;51.100;6.516;2022-08-19T14:34:09;4.55;;;2.83;;